26. September 2022

Uhrzeit Code Wetter Temp. Sichtweite Wolkendecke Wind METAR/SPECI
22:25
V
11 °C 10 km+ 4.400 ft 320° 320° 9 kt METAR EHRD 262025Z AUTO 32009KT 280V020 9999 -RA SCT015CB SCT039 BKN044 OVC049 11/09 Q0997 TEMPO 7000 RA -SHRA
21:55
V
11 °C 10 km+ 4.900 ft 330° 330° 7 kt METAR EHRD 261955Z AUTO 33007KT 280V020 9999 -RA FEW015CB BKN049 11/08 Q0997 TEMPO 7000 RA -SHRA
21:25
M
11 °C 10 km+ 2.100 ft 340° 340° 8 kt METAR EHRD 261925Z AUTO 34008KT 270V020 9999 -SHRA FEW005 SCT015CB BKN021 11/10 Q0997 RERADZ TEMPO 4500 SHRA
20:55
V
12 °C 10 km+ 3.400 ft 350° 350° 8 kt METAR EHRD 261855Z AUTO 35008KT 300V040 9999 DZRA FEW015CB SCT027 BKN034 12/10 Q0996 TEMPO 4500 SHRA
20:25
V
12 °C 10 km+ - 290° 290° 4 kt METAR EHRD 261825Z AUTO 29004KT 250V330 9999 -DZRA FEW015CB SCT036 12/10 Q0996 TEMPO 6000 SHRA
19:55
V
12 °C 10 km+ - 310° 310° 4 kt METAR EHRD 261755Z AUTO 31004KT 260V360 9999 -DZ FEW015CB 12/10 Q0996 TEMPO 6000 SHRA
19:25
V
12 °C 10 km+ 4.500 ft 330° 330° 6 kt METAR EHRD 261725Z AUTO 33006KT 250V030 9999 FEW015CB BKN045 12/10 Q0996 RERA TEMPO 6000 SHRA
18:55
V
13 °C 10 km+ 3.800 ft 300° 300° 7 kt METAR EHRD 261655Z AUTO 30007KT 250V350 9999 FEW027 BKN038 BKN042 13/10 Q0995 TEMPO 6000 SHRA FEW020CB
18:25
V
14 °C 10 km+ - 270° 270° 7 kt METAR EHRD 261625Z AUTO 27007KT 230V310 9999 SCT024 SCT029 14/10 Q0995 TEMPO 7000 -SHRA FEW020TCU
17:55
V
14 °C 10 km+ - 260° 260° 6 kt METAR EHRD 261555Z AUTO 26006KT 230V310 9999 NSC 14/10 Q0996 TEMPO 7000 -SHRA FEW020TCU
17:25
V
15 °C 10 km+ - 290° 290° 7 kt METAR EHRD 261525Z AUTO 29007KT 250V340 9999 FEW027 15/10 Q0996 TEMPO 7000 -SHRA FEW020TCU
16:55
M
14 °C 10 km+ 2.500 ft 270° 270° 7 kt METAR EHRD 261455Z AUTO 27007KT 220V330 9999 FEW017 SCT020 BKN025 14/12 Q0996 REDZ TEMPO 7000 -SHRA FEW015TCU
16:25
V
13 °C 10 km+ 4.400 ft 250° 250° 5 kt METAR EHRD 261425Z AUTO 25005KT 9999 DZ FEW015CB SCT038 BKN044 13/12 Q0996 RERADZ TEMPO 7000 -SHRA FEW015TCU
15:55
M
13 °C 6 km 1.500 ft 260° 260° 10 kt METAR EHRD 261355Z AUTO 26010KT 230V310 6000 +SHRA FEW009 BKN015CB BKN019 13/12 Q0996 BECMG 9999 NSW TEMPO SHRA FEW015TCU
15:25
M
16 °C 10 km+ 1.000 ft 230° 230° 7 kt METAR EHRD 261325Z AUTO 23007KT 180V280 9999 FEW008 BKN010 BKN013 16/14 Q0996 REDZ BECMG SCT015 TEMPO 6000 SHRA FEW015TCU
14:55
V
14 °C 10 km+ - 220° 220° 8 kt METAR EHRD 261255Z AUTO 22008KT 190V250 9999 -RA NSC 14/13 Q0996 BECMG 26010KT TEMPO 6000 -SHRA FEW015TCU
14:25
M
13 °C 5 km 1.500 ft 230° 230° 10 kt METAR EHRD 261225Z AUTO 23010KT 5000 SHRA +DZ FEW005 BKN015CB BKN026 13/13 Q0997 TEMPO 9999 NSW
13:55
I
13 °C 8 km 900 ft 220° 220° 12 kt METAR EHRD 261155Z AUTO 22012KT 190V250 8000 DZ FEW005 SCT007 BKN009 13/12 Q0997 RERADZ BECMG 9999 NSW BKN017
13:25
I
13 °C 6 km 700 ft 220° 220° 11 kt METAR EHRD 261125Z AUTO 22011KT 190V250 6000 -SHRA FEW005 BKN007 OVC008 13/12 Q0997 RERA BECMG 9999 NSW BKN017
12:55
I
13 °C 4,4 km 900 ft 210° 210° 16 kt METAR EHRD 261055Z AUTO 21016KT 4400 SHRA FEW007 SCT008 BKN009 FEW015CB 13/12 Q0997 BECMG 9999 NSW BKN017
12:25
I
12 °C 4,3 km 800 ft 210° 210° 16 kt METAR EHRD 261025Z AUTO 21016KT 180V270 4300 -RA SCT006 BKN008 BKN009 FEW015CB 12/12 Q0997 RERAGRRA TEMPO 6000
11:55
I
12 °C 4,5 km 800 ft 200° 200° 16 kt METAR EHRD 260955Z AUTO 20016KT 170V240 4500 RA SCT007 BKN008 BKN010 FEW015CB 12/11 Q0997 REDZRA TEMPO 6000
11:25
M
13 °C 7 km 1.100 ft 200° 200° 16 - 26 kt METAR EHRD 260925Z AUTO 20016G26KT 170V230 7000 -RADZ FEW009 BKN011 OVC014 13/11 Q0997 TEMPO 4000 RADZ BKN008
10:55
M
12 °C 5 km 1.100 ft 200° 200° 15 kt METAR EHRD 260855Z AUTO 20015KT 160V230 5000 -RA BKN011 BKN013 FEW015CB OVC017 12/11 Q0998 REDZRA TEMPO 4000 BKN008
10:25
M
12 °C 10 km+ 1.600 ft 190° 190° 14 - 24 kt METAR EHRD 260825Z AUTO 19014G24KT 160V240 9999 -RADZ BKN016 OVC019 12/10 Q0998 BECMG 6000 BKN014
09:55
M
13 °C 10 km+ 2.000 ft 200° 200° 16 kt METAR EHRD 260755Z AUTO 20016KT 170V240 9999 -RADZ FEW017 OVC020 13/10 Q0999 BECMG 6000 BKN014
09:25
V
13 °C 10 km+ 3.100 ft 200° 200° 17 kt METAR EHRD 260725Z AUTO 20017KT 170V230 9999 FEW018 BKN031 OVC036 13/09 Q0999 BECMG 6000 -RA
08:55
M
12 °C 10 km+ 2.400 ft 200° 200° 15 kt METAR EHRD 260655Z AUTO 20015KT 160V240 9999 SCT020 BKN024 BKN029 12/09 Q1000 BECMG 6000 -RA
08:25
V
12 °C 10 km+ - 200° 200° 13 kt METAR EHRD 260625Z AUTO 20013KT 160V230 9999 FEW020 SCT041 12/09 Q1000 NOSIG
07:55
V
12 °C 10 km+ - 190° 190° 12 kt METAR EHRD 260555Z AUTO 19012KT 160V230 9999 FEW022 12/09 Q1001 NOSIG
07:25
V
12 °C 10 km+ - 200° 200° 14 kt METAR EHRD 260525Z AUTO 20014KT 150V240 9999 NSC 12/08 Q1002 NOSIG
06:55
M
12 °C 10 km+ 2.800 ft 200° 200° 13 kt METAR EHRD 260455Z AUTO 20013KT 170V230 9999 DZ BKN028 BKN033 OVC037 12/08 Q1002 NOSIG
06:25
V
12 °C 10 km+ - 200° 200° 13 kt METAR EHRD 260425Z AUTO 20013KT 180V250 9999 DZ FEW016CB 12/08 Q1003 NOSIG
05:55
V
12 °C 10 km+ - 210° 210° 14 kt METAR EHRD 260355Z AUTO 21014KT 160V240 9999 -RADZ FEW017CB 12/08 Q1003 NOSIG
05:25
V
13 °C 10 km+ - 210° 210° 13 kt METAR EHRD 260325Z AUTO 21013KT 9999 NSC 13/08 Q1004 NOSIG
04:55
V
13 °C 10 km+ - 220° 220° 13 kt METAR EHRD 260255Z AUTO 22013KT 9999 NSC 13/08 Q1005 NOSIG
04:25
V
13 °C 10 km+ - 210° 210° 13 kt METAR EHRD 260225Z AUTO 21013KT 180V250 9999 NSC 13/09 Q1005 NOSIG
03:55
V
13 °C 10 km+ - 200° 200° 10 kt METAR EHRD 260155Z AUTO 20010KT 160V230 9999 -RA NSC 13/09 Q1006 NOSIG
03:25
V
13 °C 10 km+ - 210° 210° 11 kt METAR EHRD 260125Z AUTO 21011KT 170V230 9999 -DZ FEW041 13/10 Q1007 NOSIG
02:55
V
13 °C 10 km+ 4.500 ft 210° 210° 9 kt METAR EHRD 260055Z AUTO 21009KT 9999 BKN045 OVC049 13/10 Q1007 REDZ NOSIG
02:25
V
13 °C 10 km+ 4.300 ft 220° 220° 10 kt METAR EHRD 260025Z AUTO 22010KT 9999 -RA SCT038/// OVC043/// 13/10 Q1008 REDZRA NOSIG
01:55
V
13 °C 10 km+ - 210° 210° 8 kt METAR EHRD 252355Z AUTO 21008KT 9999 NSC 13/10 Q1009 NOSIG
01:25
V
13 °C 10 km+ 3.800 ft 210° 210° 9 kt METAR EHRD 252325Z AUTO 21009KT 9999 BKN038 OVC044 13/11 Q1009 REDZ NOSIG
00:55
M
13 °C 10 km+ 2.900 ft 220° 220° 9 kt METAR EHRD 252255Z AUTO 22009KT 190V260 9999 +DZ FEW025 BKN029 OVC035 13/11 Q1010 NOSIG
00:25
V
13 °C 10 km+ 3.100 ft 230° 230° 7 kt METAR EHRD 252225Z AUTO 23007KT 9999 BKN031 OVC035 13/10 Q1010 REDZ NOSIG

25. September 2022

Uhrzeit Code Wetter Temp. Sichtweite Wolkendecke Wind METAR/SPECI
23:55
V
12 °C 10 km+ - 190° 190° 5 kt METAR EHRD 252155Z AUTO 19005KT 9999 SCT033 12/10 Q1011 NOSIG
23:25
V
12 °C 10 km+ 3.900 ft 190° 190° 4 kt METAR EHRD 252125Z AUTO 19004KT 9999 SCT033 BKN039 BKN046 12/10 Q1011 NOSIG
22:55
V
12 °C 10 km+ 3.000 ft 190° 190° 4 kt METAR EHRD 252055Z AUTO 19004KT 130V210 9999 BKN030 OVC034 12/10 Q1011 NOSIG
22:25
V
10 °C 10 km+ - 190° 190° 4 kt METAR EHRD 252025Z AUTO 19004KT 9999 NSC 10/09 Q1012 NOSIG
21:55
V
10 °C 10 km+ - 210° 210° 4 kt METAR EHRD 251955Z AUTO 21004KT 9999 NSC 10/09 Q1012 NOSIG
21:25
V
11 °C 10 km+ - 260° 260° 4 kt METAR EHRD 251925Z AUTO 26004KT 230V290 9999 NSC 11/10 Q1012 TEMPO 28012KT -SHRA FEW022TCU
20:55
V
11 °C 10 km+ 3.000 ft 240° 240° 3 kt METAR EHRD 251855Z AUTO 24003KT 9999 BKN030 11/10 Q1013 TEMPO 28012KT -SHRA FEW022TCU
20:25
V
11 °C 10 km+ - 240° 240° 3 kt METAR EHRD 251825Z AUTO 24003KT 9999 NSC 11/09 Q1013 TEMPO 28012KT -SHRA FEW022TCU
19:55
V
12 °C 10 km+ - 280° 280° 3 kt METAR EHRD 251755Z AUTO 28003KT 9999 FEW035 12/10 Q1013 REDZ TEMPO 32014KT 7000 SHRA FEW022TCU
19:25
V
13 °C 10 km+ 4.500 ft 270° 270° 3 kt METAR EHRD 251725Z AUTO 27003KT 240V310 9999 DZRA FEW025 SCT036 BKN045 13/10 Q1013 TEMPO 32014KT 7000 SHRA FEW022TCU
18:55
V
14 °C 10 km+ - Var Var 2 kt METAR EHRD 251655Z AUTO VRB02KT 9999 NSC 14/10 Q1014 TEMPO 32014KT 7000 SHRA FEW022TCU
18:25
V
14 °C 10 km+ - 320° 320° 3 kt METAR EHRD 251625Z AUTO 32003KT 270V010 9999 NSC 14/10 Q1014 TEMPO -SHRA FEW022TCU
17:55
V
14 °C 10 km+ - 300° 300° 3 kt METAR EHRD 251555Z AUTO 30003KT 250V350 9999 FEW033 14/11 Q1014 REDZ TEMPO -SHRA FEW022TCU
17:25
V
14 °C 10 km+ 4.900 ft 340° 340° 6 kt METAR EHRD 251525Z AUTO 34006KT 280V020 9999 -RA FEW027 SCT031 BKN049 14/11 Q1014 TEMPO -SHRA FEW022TCU
16:55
V
15 °C 10 km+ - 320° 320° 5 kt METAR EHRD 251455Z AUTO 32005KT 270V020 9999 FEW032 15/09 Q1014 TEMPO -SHRA FEW022TCU
16:25
V
16 °C 10 km+ - 320° 320° 5 kt METAR EHRD 251425Z AUTO 32005KT 270V360 9999 NSC 16/09 Q1014 TEMPO -SHRA FEW022TCU
15:55
V
15 °C 10 km+ - 350° 350° 6 kt METAR EHRD 251355Z AUTO 35006KT 300V030 9999 NSC 15/09 Q1014 NOSIG
15:25
V
16 °C 10 km+ - 350° 350° 9 kt METAR EHRD 251325Z AUTO 35009KT 300V050 9999 NSC 16/09 Q1015 NOSIG
14:55
V
17 °C 10 km+ - 330° 330° 6 kt METAR EHRD 251255Z AUTO 33006KT 280V020 9999 NCD 17/08 Q1015 NOSIG
14:25
V
16 °C 10 km+ - 340° 340° 6 kt METAR EHRD 251225Z AUTO 34006KT 290V020 9999 FEW036 16/10 Q1015 NOSIG
13:55
V
16 °C 10 km+ - 010° 010° 4 kt METAR EHRD 251155Z AUTO 01004KT 330V040 9999 NSC 16/09 Q1015 NOSIG
13:25
V
17 °C 10 km+ 3.100 ft 340° 340° 6 kt METAR EHRD 251125Z AUTO 34006KT 290V030 9999 BKN031 17/08 Q1015 NOSIG
12:55
V
16 °C 10 km+ - 330° 330° 6 kt METAR EHRD 251055Z AUTO 33006KT 280V020 9999 FEW032 SCT039 16/09 Q1016 NOSIG
12:25
M
16 °C 10 km+ 2.700 ft 330° 330° 4 kt METAR EHRD 251025Z AUTO 33004KT 270V020 9999 BKN027 BKN032 BKN049 16/09 Q1016 NOSIG
11:55
M
16 °C 10 km+ 2.200 ft 290° 290° 4 kt METAR EHRD 250955Z AUTO 29004KT 240V360 9999 BKN022 BKN026 BKN030 16/10 Q1016 NOSIG
11:25
V
15 °C 10 km+ - 310° 310° 3 kt METAR EHRD 250925Z AUTO 31003KT 260V050 9999 FEW021 15/10 Q1016 NOSIG
10:55
V
15 °C 10 km+ - Var Var 2 kt METAR EHRD 250855Z AUTO VRB02KT 9999 NSC 15/10 Q1016 NOSIG
10:25
V
14 °C 10 km+ - Var Var 2 kt METAR EHRD 250825Z AUTO VRB02KT 9999 NSC 14/11 Q1016 NOSIG
09:55
V
12 °C 10 km+ - Var Var 2 kt METAR EHRD 250755Z AUTO VRB02KT 9999 NSC 12/11 Q1016 NOSIG
09:25
V
11 °C 10 km+ - 340° 340° 1 kt METAR EHRD 250725Z AUTO 34001KT 9999 NSC 11/11 Q1016 NOSIG
08:55
V
11 °C 10 km+ - Var Var 2 kt METAR EHRD 250655Z AUTO VRB02KT 9999 -RA FEW015CB 11/10 Q1016 NOSIG
08:25
V
10 °C 10 km+ - Var 000° 0 kt METAR EHRD 250625Z AUTO /////KT 9999 FEW015CB 10/09 Q1016 NOSIG
07:55
V
8 °C 10 km+ - 070° 070° 2 kt METAR EHRD 250555Z AUTO 07002KT 9999 NSC 08/08 Q1016 NOSIG
07:25
M
9 °C 5 km - 280° 280° 3 kt METAR EHRD 250525Z AUTO 28003KT 250V320 5000 FEW015CB 09/08 Q1016 NOSIG
06:55
V
9 °C 10 km+ - 320° 320° 2 kt METAR EHRD 250455Z AUTO 32002KT 9999 NCD 09/09 Q1016 NOSIG
06:25
V
10 °C 10 km+ - 270° 270° 4 kt METAR EHRD 250425Z AUTO 27004KT 9999 FEW015CB 10/10 Q1016 NOSIG
05:55
V
9 °C 10 km+ - Var Var 1 kt METAR EHRD 250355Z AUTO VRB01KT 9999 -SHRA FEW002 FEW015CB SCT047 09/09 Q1016 NOSIG
05:25
V
9 °C 10 km+ - 300° 300° 2 kt METAR EHRD 250325Z AUTO 30002KT 9999 FEW015CB 09/09 Q1016 NOSIG
04:55
V
9 °C 10 km+ - 240° 240° 3 kt METAR EHRD 250255Z AUTO 24003KT 9999 NSC 09/09 Q1016 NOSIG
04:25
I
8 °C 2,5 km - 250° 250° 3 kt METAR EHRD 250225Z AUTO 25003KT 240V300 2500 BR FEW015CB 08/08 Q1016 NOSIG
03:55
V
8 °C 8 km - 310° 310° 2 kt METAR EHRD 250155Z AUTO 31002KT 8000 NSC 08/08 Q1016 NOSIG
03:25
M
8 °C 5 km - 340° 340° 1 kt METAR EHRD 250125Z AUTO 34001KT 5000 NSC 08/08 Q1016 NOSIG
02:55
V
8 °C 10 km+ - Var 000° 0 kt METAR EHRD 250055Z AUTO 00000KT 9999 NCD 08/07 Q1016 NOSIG
02:25
V
8 °C 8 km - 320° 320° 2 kt METAR EHRD 250025Z AUTO 32002KT 8000 NCD 08/08 Q1016 NOSIG
01:55
V
9 °C 10 km+ - 340° 340° 3 kt METAR EHRD 242355Z AUTO 34003KT 9999 NCD 09/08 Q1016 NOSIG
01:25
V
8 °C 10 km+ - 340° 340° 4 kt METAR EHRD 242325Z AUTO 34004KT 310V010 9999 NCD 08/08 Q1016 NOSIG
00:55
V
9 °C 10 km+ - 330° 330° 4 kt METAR EHRD 242255Z AUTO 33004KT 300V360 9999 NCD 09/08 Q1016 NOSIG
00:25
V
9 °C 10 km+ - 340° 340° 4 kt METAR EHRD 242225Z AUTO 34004KT 9999 NCD 09/09 Q1016 NOSIG

24. September 2022

Uhrzeit Code Wetter Temp. Sichtweite Wolkendecke Wind METAR/SPECI
23:55
V
9 °C 10 km+ - 330° 330° 3 kt METAR EHRD 242155Z AUTO 33003KT 290V010 9999 NCD 09/08 Q1016 NOSIG
23:25
V
11 °C 10 km+ - 350° 350° 3 kt METAR EHRD 242125Z AUTO 35003KT 310V010 9999 NCD 11/09 Q1016 NOSIG
22:55
V
11 °C 10 km+ - 360° 360° 3 kt METAR EHRD 242055Z AUTO 36003KT 330V030 9999 NSC 11/09 Q1016 NOSIG
22:25
V
12 °C 10 km+ - 360° 360° 4 kt METAR EHRD 242025Z AUTO 36004KT 9999 NSC 12/09 Q1016 NOSIG
21:55
V
12 °C 10 km+ - 010° 010° 4 kt METAR EHRD 241955Z AUTO 01004KT 330V040 9999 NSC 12/09 Q1016 NOSIG
21:25
V
13 °C 10 km+ - 010° 010° 5 kt METAR EHRD 241925Z AUTO 01005KT 340V040 9999 NSC 13/10 Q1015 NOSIG
20:55
V
13 °C 10 km+ - 020° 020° 5 kt METAR EHRD 241855Z AUTO 02005KT 340V050 9999 NSC 13/10 Q1015 NOSIG
20:25
V
14 °C 10 km+ - 020° 020° 6 kt METAR EHRD 241825Z AUTO 02006KT 350V050 9999 NSC 14/09 Q1015 NOSIG
19:55
V
14 °C 10 km+ - 010° 010° 8 kt METAR EHRD 241755Z AUTO 01008KT 330V050 9999 NSC 14/09 Q1015 NOSIG
19:25
V
15 °C 10 km+ - 020° 020° 7 kt METAR EHRD 241725Z AUTO 02007KT 340V060 9999 NCD 15/09 Q1014 NOSIG
18:55
V
16 °C 10 km+ - 030° 030° 10 kt METAR EHRD 241655Z AUTO 03010KT 360V070 9999 NSC 16/09 Q1014 NOSIG
18:25
V
16 °C 10 km+ - 020° 020° 11 kt METAR EHRD 241625Z AUTO 02011KT 350V080 9999 FEW036 16/09 Q1014 NOSIG
17:55
V
17 °C 10 km+ 3.300 ft 030° 030° 10 kt METAR EHRD 241555Z AUTO 03010KT 340V070 9999 BKN033 BKN039 17/10 Q1014 NOSIG
17:25
V
16 °C 10 km+ - 030° 030° 9 kt METAR EHRD 241525Z AUTO 03009KT 350V070 9999 NSC 16/10 Q1014 NOSIG
16:55
V
16 °C 10 km+ - 020° 020° 10 kt METAR EHRD 241455Z AUTO 02010KT 340V060 9999 NSC 16/09 Q1013 NOSIG
Ältere Daten

Wir und Dritte verfolgen dein Internetverhalten auf unserer Website mit Cookies. Wenn du fortfährst, gehen wir davon aus, dass du mit unserer Cookie-Richtlinie einverstanden bist. Mehr erfahren